Time;durP1;ratioP1;P1;durP2;ratioP2;P2;SDS_P1;SDS_P2;PMS_P1;PMS_P2;Temp;Humidity;BMP_temperature;BMP_pressure;BME280_temperature;BME280_humidity;BME280_pressure;Samples;Min_cycle;Max_cycle;Signal;HPM_P1;HPM_P2
2023/11/04 00:01:46;;;;;;;;;;;;;;;28.27;72.66;100948.66;5092670;27;70716;-36
2023/11/04 00:04:16;;;;;;;;;;;;;;;28.30;72.71;100960.91;5104075;27;66940;-37
2023/11/04 00:06:46;;;;;;;;;;;;;;;28.33;72.48;100960.50;5079412;28;70325;-37
2023/11/04 00:09:16;;;;;;;;;;;;;;;28.35;72.52;100958.47;5102779;27;66578;-37
2023/11/04 00:11:50;;;;;;;;;;;;;;;28.38;72.87;100974.25;5104437;27;70051;-37
2023/11/04 00:14:20;;;;;;;;;;;;;;;28.41;73.43;100973.00;5100208;27;66663;-38
2023/11/04 00:16:49;;;;;;;;;;;;;;;28.39;73.41;100967.84;5103050;27;70140;-38
2023/11/04 00:19:19;;;;;;;;;;;;;;;28.43;74.18;100974.50;5102338;27;65787;-37
2023/11/04 00:21:49;;;;;;;;;;;;;;;28.45;74.47;100958.94;5100849;27;70348;-38
2023/11/04 00:24:19;;;;;;;;;;;;;;;28.47;75.49;100962.28;5101123;27;66401;-37
2023/11/04 00:26:49;;;;;;;;;;;;;;;28.51;75.43;100968.09;5101456;27;70690;-37
2023/11/04 00:29:19;;;;;;;;;;;;;;;28.56;75.50;100972.91;5101502;27;66811;-36
2023/11/04 00:31:49;;;;;;;;;;;;;;;28.61;75.78;100983.91;5085230;27;69978;-36
2023/11/04 00:34:38;;;;;;;;;;;;;;;28.63;76.02;100987.25;5077842;27;65934;-36
2023/11/04 00:37:28;;;;;;;;;;;;;;;28.64;75.91;100989.75;5099664;27;70006;-36
2023/11/04 00:40:19;;;;;;;;;;;;;;;28.67;76.40;100988.50;5084073;27;65012;-39
2023/11/04 00:43:08;;;;;;;;;;;;;;;28.69;75.92;101002.63;5070339;27;69511;-38
2023/11/04 00:45:58;;;;;;;;;;;;;;;28.71;76.04;101005.97;5083546;27;64740;-36
2023/11/04 00:48:48;;;;;;;;;;;;;;;28.72;76.65;101000.38;5085523;27;68464;-36
2023/11/04 00:51:40;;;;;;;;;;;;;;;28.79;76.53;101000.38;5084483;27;66013;-36
2023/11/04 00:54:30;;;;;;;;;;;;;;;28.81;73.84;100998.31;5060137;27;69035;-37
2023/11/04 00:57:20;;;;;;;;;;;;;;;28.86;72.70;101003.94;5086646;27;64775;-36
2023/11/04 01:00:10;;;;;;;;;;;;;;;28.91;71.50;101001.44;5072162;27;69396;-36
2023/11/04 01:02:59;;;;;;;;;;;;;;;28.95;70.62;100996.47;5101019;27;65340;-37
2023/11/04 01:05:49;;;;;;;;;;;;;;;28.99;70.82;100992.31;5084988;27;69456;-38
2023/11/04 01:08:39;;;;;;;;;;;;;;;29.03;69.86;100987.34;5063936;27;65822;-37
2023/11/04 01:11:28;;;;;;;;;;;;;;;29.07;70.57;101012.94;5084064;27;68487;-37
2023/11/04 01:14:18;;;;;;;;;;;;;;;29.10;69.43;101004.44;5084147;27;65573;-38
2023/11/04 01:17:09;;;;;;;;;;;;;;;29.13;69.32;101004.00;5070912;27;70216;-37
2023/11/04 01:19:59;;;;;;;;;;;;;;;29.15;69.11;100996.53;5085938;27;65024;-37
2023/11/04 01:22:48;;;;;;;;;;;;;;;29.18;68.96;101006.94;5068196;27;69443;-37
2023/11/04 01:25:38;;;;;;;;;;;;;;;29.22;68.64;101000.06;5083207;27;64738;-37
2023/11/04 01:28:28;;;;;;;;;;;;;;;29.23;68.28;100993.63;5096280;27;69949;-36
2023/11/04 01:31:18;;;;;;;;;;;;;;;29.27;68.83;100997.56;5086037;27;65140;-36
2023/11/04 01:34:10;;;;;;;;;;;;;;;29.28;68.40;101003.81;5082664;27;69333;-37
2023/11/04 01:36:59;;;;;;;;;;;;;;;29.30;68.35;100997.16;5101820;27;65205;-37
2023/11/04 01:39:49;;;;;;;;;;;;;;;29.33;68.16;101002.16;5065384;27;69372;-37
2023/11/04 01:42:45;;;;;;;;;;;;;;;29.35;67.78;100999.25;5073367;27;65635;-36
2023/11/04 01:45:35;;;;;;;;;;;;;;;29.36;68.15;100993.66;5066992;28;69754;-37
2023/11/04 01:48:24;;;;;;;;;;;;;;;29.39;68.11;100995.94;5080309;27;65741;-37
2023/11/04 01:51:14;;;;;;;;;;;;;;;29.41;67.50;100993.00;5086082;27;69488;-37
2023/11/04 01:54:04;;;;;;;;;;;;;;;29.43;68.00;100992.81;5086745;27;65764;-37
2023/11/04 01:56:54;;;;;;;;;;;;;;;29.46;67.45;100987.00;5072720;27;70404;-37
2023/11/04 01:59:44;;;;;;;;;;;;;;;29.48;67.41;100990.34;5067308;27;67495;-37
2023/11/04 02:02:33;;;;;;;;;;;;;;;29.50;67.75;100988.22;5070039;27;69504;-37
2023/11/04 02:05:23;;;;;;;;;;;;;;;29.53;67.72;100983.25;5085032;27;65614;-36
2023/11/04 02:08:13;;;;;;;;;;;;;;;29.55;67.09;100985.72;5072373;27;69263;-36
2023/11/04 02:11:05;;;;;;;;;;;;;;;29.57;67.21;100978.25;5085664;27;66303;-37
2023/11/04 02:13:54;;;;;;;;;;;;;;;29.60;67.53;100977.84;5065774;27;70632;-37
2023/11/04 02:16:44;;;;;;;;;;;;;;;29.62;67.28;100986.56;5084768;27;64979;-37
2023/11/04 02:19:37;;;;;;;;;;;;;;;29.65;67.11;100985.34;5097699;27;69264;-37
2023/11/04 02:22:27;;;;;;;;;;;;;;;29.67;67.19;100976.00;5085125;27;66214;-36
2023/11/04 02:25:18;;;;;;;;;;;;;;;29.69;67.07;100975.78;5084829;27;69552;-36
2023/11/04 02:28:11;;;;;;;;;;;;;;;29.68;69.64;100974.94;5081708;27;59929;-37
2023/11/04 02:31:01;;;;;;;;;;;;;;;29.64;71.38;100968.28;5097403;27;68954;-38
2023/11/04 02:33:50;;;;;;;;;;;;;;;29.64;71.92;100964.75;5055497;27;65650;-37
2023/11/04 02:36:40;;;;;;;;;;;;;;;29.64;72.00;100967.47;5080098;27;68939;-37
2023/11/04 02:39:30;;;;;;;;;;;;;;;29.63;72.44;100972.03;5083538;27;65944;-38
2023/11/04 02:42:19;;;;;;;;;;;;;;;29.65;72.79;100966.44;5069165;27;68613;-37
2023/11/04 02:45:11;;;;;;;;;;;;;;;29.66;73.01;100966.22;5067093;27;65682;-37
2023/11/04 02:48:01;;;;;;;;;;;;;;;29.68;72.76;100969.53;5069427;27;68675;-37
2023/11/04 02:50:50;;;;;;;;;;;;;;;29.69;72.63;100976.59;5069807;27;64681;-38
2023/11/04 02:53:40;;;;;;;;;;;;;;;29.72;72.68;100970.78;5081764;27;71187;-37
2023/11/04 02:56:30;;;;;;;;;;;;;;;29.75;72.76;100969.53;5068734;27;66508;-37
2023/11/04 02:59:19;;;;;;;;;;;;;;;29.78;73.18;100964.53;5073800;27;70240;-37
2023/11/04 03:02:09;;;;;;;;;;;;;;;29.79;73.36;100965.38;5083122;27;65955;-37
2023/11/04 03:04:58;;;;;;;;;;;;;;;29.81;73.13;100964.13;5081991;27;68505;-37
2023/11/04 03:07:48;;;;;;;;;;;;;;;29.84;73.27;100958.28;5084695;27;65671;-38
2023/11/04 03:10:38;;;;;;;;;;;;;;;29.87;73.26;100959.75;5085143;27;68438;-37
2023/11/04 03:13:28;;;;;;;;;;;;;;;29.89;73.03;100948.69;5071782;27;66044;-39
2023/11/04 03:16:22;;;;;;;;;;;;;;;29.93;72.87;100944.53;5085658;27;70903;-38
2023/11/04 03:19:12;;;;;;;;;;;;;;;29.94;72.70;100947.00;5083294;27;64985;-38
2023/11/04 03:22:01;;;;;;;;;;;;;;;29.97;72.58;100934.94;5073240;27;69839;-39
2023/11/04 03:24:51;;;;;;;;;;;;;;;29.70;72.82;100886.38;5088283;27;65993;-38
2023/11/04 03:27:41;;;;;;;;;;;;;;;30.02;72.25;100927.03;5074722;27;68494;-38
2023/11/04 03:30:34;;;;;;;;;;;;;;;30.04;72.74;100924.94;5086217;27;64875;-38
2023/11/04 03:33:25;;;;;;;;;;;;;;;30.06;72.27;100920.13;5087133;27;70794;-38
2023/11/04 03:36:14;;;;;;;;;;;;;;;30.08;72.04;100909.94;5087946;27;65776;-38
2023/11/04 03:39:05;;;;;;;;;;;;;;;30.10;72.11;100918.66;5062676;27;69276;-37
2023/11/04 03:41:54;;;;;;;;;;;;;;;30.13;72.06;100910.13;5086016;27;65647;-37
2023/11/04 03:44:44;;;;;;;;;;;;;;;30.17;72.41;100914.06;5085638;27;71742;-38
2023/11/04 03:47:33;;;;;;;;;;;;;;;30.20;71.64;100904.66;5073884;27;65787;-39
2023/11/04 03:50:24;;;;;;;;;;;;;;;30.22;71.73;100900.75;5071865;27;68414;-38
2023/11/04 03:53:13;;;;;;;;;;;;;;;30.23;71.79;100899.72;5088441;27;65375;-38
2023/11/04 03:56:03;;;;;;;;;;;;;;;30.25;71.61;100900.31;5088131;27;69648;-41
2023/11/04 03:58:52;;;;;;;;;;;;;;;30.28;71.84;100897.19;5076208;27;65639;-37
2023/11/04 04:01:42;;;;;;;;;;;;;;;30.32;71.43;100888.66;5088389;27;69292;-37
2023/11/04 04:04:32;;;;;;;;;;;;;;;30.39;70.89;100886.72;5087356;27;67588;-38
2023/11/04 04:07:21;;;;;;;;;;;;;;;30.48;70.61;100880.00;5087182;27;69463;-37
2023/11/04 04:10:11;;;;;;;;;;;;;;;30.51;70.52;100876.88;5087824;27;64902;-38
2023/11/04 04:13:01;;;;;;;;;;;;;;;30.47;68.83;100876.47;5101887;27;69009;-39
2023/11/04 04:15:52;;;;;;;;;;;;;;;30.42;66.99;100864.63;5086206;27;65603;-39
2023/11/04 04:18:42;;;;;;;;;;;;;;;30.37;66.22;100859.88;5082225;27;68858;-38
2023/11/04 04:21:31;;;;;;;;;;;;;;;30.34;64.48;100854.06;5085395;27;67766;-38
2023/11/04 04:24:21;;;;;;;;;;;;;;;30.35;64.29;100844.91;5087330;27;68596;-37
2023/11/04 04:27:10;;;;;;;;;;;;;;;30.32;63.62;100839.94;5080539;27;64787;-39
2023/11/04 04:30:00;;;;;;;;;;;;;;;30.26;61.51;100837.03;5068034;27;69362;-38
2023/11/04 04:32:50;;;;;;;;;;;;;;;30.23;61.08;100842.06;5074257;28;65671;-38
2023/11/04 04:35:41;;;;;;;;;;;;;;;30.28;60.53;100840.38;5070558;28;68984;-38
2023/11/04 04:38:30;;;;;;;;;;;;;;;30.34;58.90;100832.41;5078180;27;65750;-36
2023/11/04 04:41:20;;;;;;;;;;;;;;;30.34;58.25;100821.56;5082114;27;69424;-37
2023/11/04 04:44:09;;;;;;;;;;;;;;;30.36;56.96;100822.19;5083090;27;64770;-38
2023/11/04 04:46:59;;;;;;;;;;;;;;;30.35;56.52;100817.84;5066904;27;69363;-38
2023/11/04 04:49:48;;;;;;;;;;;;;;;30.35;55.87;100818.66;5078453;27;65133;-38
2023/11/04 04:52:38;;;;;;;;;;;;;;;30.33;55.33;100809.09;5075001;28;70873;-38
2023/11/04 04:55:28;;;;;;;;;;;;;;;30.32;54.31;100813.69;5083199;27;66152;-37
2023/11/04 04:58:17;;;;;;;;;;;;;;;30.33;53.81;100809.09;5082804;27;69996;-37
2023/11/04 05:01:07;;;;;;;;;;;;;;;30.33;53.23;100804.50;5080699;27;65634;-38
2023/11/04 05:03:56;;;;;;;;;;;;;;;30.08;53.55;100801.72;5065500;28;69867;-37
2023/11/04 05:06:46;;;;;;;;;;;;;;;30.15;54.71;100797.13;5078265;27;66008;-38
2023/11/04 05:09:35;;;;;;;;;;;;;;;30.10;54.37;100788.81;5078555;27;69396;-37
2023/11/04 05:12:25;;;;;;;;;;;;;;;30.09;53.93;100781.75;5079562;28;65784;-38
2023/11/04 05:15:14;;;;;;;;;;;;;;;30.12;54.04;100777.81;5079289;28;69671;-38
2023/11/04 05:18:04;;;;;;;;;;;;;;;30.09;53.77;100768.25;5061951;28;65189;-39
2023/11/04 05:20:56;;;;;;;;;;;;;;;30.11;53.79;100768.00;5076524;28;69875;-38
2023/11/04 05:23:45;;;;;;;;;;;;;;;30.09;53.53;100754.72;5077429;28;65544;-38
2023/11/04 05:26:40;;;;;;;;;;;;;;;30.12;53.35;100748.88;5073235;27;68572;-36
2023/11/04 05:29:30;;;;;;;;;;;;;;;30.10;52.85;100745.53;5080736;27;65464;-37
2023/11/04 05:32:20;;;;;;;;;;;;;;;30.03;52.37;100745.59;5079699;27;69611;-39
2023/11/04 05:35:09;;;;;;;;;;;;;;;30.02;52.61;100738.50;5064441;28;66562;-38
2023/11/04 05:37:59;;;;;;;;;;;;;;;30.07;52.05;100729.75;5088725;27;69295;-38
2023/11/04 05:40:50;;;;;;;;;;;;;;;30.17;52.04;100729.25;5079801;27;66521;-38
2023/11/04 05:43:40;;;;;;;;;;;;;;;30.20;52.01;100731.50;5079516;28;69334;-40
2023/11/04 05:46:29;;;;;;;;;;;;;;;30.45;53.49;100726.16;5074643;27;64802;-38
2023/11/04 05:49:19;;;;;;;;;;;;;;;30.60;56.23;100723.94;5079165;27;69372;-38
2023/11/04 05:52:08;;;;;;;;;;;;;;;30.71;57.47;100709.69;5066079;27;65586;-39
2023/11/04 05:54:58;;;;;;;;;;;;;;;30.82;58.58;100710.03;5079382;28;69291;-37
2023/11/04 05:57:48;;;;;;;;;;;;;;;30.94;59.59;100709.03;5077366;27;65316;-38
2023/11/04 06:00:38;;;;;;;;;;;;;;;31.03;59.75;100706.03;5075876;28;69870;-38
2023/11/04 06:03:28;;;;;;;;;;;;;;;31.09;60.11;100697.84;5061843;28;66167;-37
2023/11/04 06:06:20;;;;;;;;;;;;;;;31.16;60.48;100693.16;5077343;27;69682;-38
2023/11/04 06:09:11;;;;;;;;;;;;;;;31.24;60.84;100683.09;5080354;27;65028;-38
2023/11/04 06:12:00;;;;;;;;;;;;;;;31.30;60.99;100674.03;5079976;27;68379;-38
2023/11/04 06:14:50;;;;;;;;;;;;;;;31.36;61.28;100670.44;5079312;28;64902;-37
2023/11/04 06:17:39;;;;;;;;;;;;;;;31.39;61.60;100670.81;5078435;27;69324;-38
2023/11/04 06:20:29;;;;;;;;;;;;;;;31.43;61.39;100668.50;5072406;28;65624;-38
2023/11/04 06:23:19;;;;;;;;;;;;;;;31.50;61.34;100662.97;5067824;27;68809;-38
2023/11/04 06:26:08;;;;;;;;;;;;;;;31.53;61.31;100657.91;5084900;27;64894;-37
2023/11/04 06:28:58;;;;;;;;;;;;;;;31.57;61.40;100653.69;5088474;27;69121;-38
2023/11/04 06:31:47;;;;;;;;;;;;;;;31.62;61.48;100650.25;5082109;27;65635;-38
2023/11/04 06:34:39;;;;;;;;;;;;;;;31.65;61.67;100648.97;5081014;27;69559;-39
2023/11/04 06:37:29;;;;;;;;;;;;;;;31.67;61.63;100641.44;5084568;27;65896;-37
2023/11/04 06:40:19;;;;;;;;;;;;;;;31.73;61.64;100637.81;5084113;27;68565;-38
2023/11/04 06:43:08;;;;;;;;;;;;;;;31.76;61.81;100640.03;5085814;27;67004;-37
2023/11/04 06:45:58;;;;;;;;;;;;;;;31.78;61.68;100632.50;5096591;27;70199;-37
2023/11/04 06:48:48;;;;;;;;;;;;;;;31.82;62.00;100628.28;5081879;27;65100;-37
2023/11/04 06:51:38;;;;;;;;;;;;;;;31.84;62.16;100620.72;5068963;27;68644;-37
2023/11/04 06:54:08;;;;;;;;;;;;;;;31.86;62.31;100618.63;5101822;27;66560;-37
2023/11/04 06:56:38;;;;;;;;;;;;;;;31.89;62.29;100618.16;5065159;27;69947;-38
2023/11/04 06:59:08;;;;;;;;;;;;;;;31.93;62.37;100622.09;5100889;27;66530;-38
2023/11/04 07:01:38;;;;;;;;;;;;;;;31.96;62.40;100618.09;5081729;27;69451;-37
2023/11/04 07:04:07;;;;;;;;;;;;;;;31.98;62.71;100611.38;5098772;27;66009;-38
2023/11/04 07:06:37;;;;;;;;;;;;;;;32.00;62.78;100620.06;5102608;27;70877;-38
2023/11/04 07:09:08;;;;;;;;;;;;;;;32.03;62.53;100614.19;5102716;27;66220;-37
2023/11/04 07:11:38;;;;;;;;;;;;;;;32.04;62.54;100610.44;5102591;27;70284;-37
2023/11/04 07:14:08;;;;;;;;;;;;;;;32.08;62.62;100615.38;5066937;27;66535;-37
2023/11/04 07:16:37;;;;;;;;;;;;;;;32.11;62.84;100606.75;5102680;27;70375;-37
2023/11/04 07:19:07;;;;;;;;;;;;;;;32.14;62.74;100609.00;5101034;27;67347;-37
2023/11/04 07:21:37;;;;;;;;;;;;;;;32.17;62.97;100619.38;5102933;27;70396;-38
2023/11/04 07:24:07;;;;;;;;;;;;;;;32.20;63.01;100608.06;5103395;27;66487;-37
2023/11/04 07:26:37;;;;;;;;;;;;;;;32.22;62.83;100600.50;5101371;27;70507;-37
2023/11/04 07:29:06;;;;;;;;;;;;;;;32.25;62.88;100598.16;5102582;27;65595;-37
2023/11/04 07:31:36;;;;;;;;;;;;;;;32.27;62.93;100596.03;5102727;27;71093;-37
2023/11/04 07:34:06;;;;;;;;;;;;;;;32.30;62.91;100592.03;5100900;27;66132;-37
2023/11/04 07:36:36;;;;;;;;;;;;;;;32.32;62.71;100598.03;5100982;27;70819;-37
2023/11/04 07:39:07;;;;;;;;;;;;;;;32.34;61.98;100587.75;5101391;27;66608;-37
2023/11/04 07:41:40;;;;;;;;;;;;;;;32.35;62.14;100589.41;5068916;27;70432;-37
2023/11/04 07:44:11;;;;;;;;;;;;;;;32.38;62.17;100591.66;5099379;27;66643;-37
2023/11/04 07:46:41;;;;;;;;;;;;;;;32.40;62.04;100584.13;5100029;27;70518;-38
2023/11/04 07:49:10;;;;;;;;;;;;;;;32.41;62.02;100583.03;5100579;27;66363;-36
2023/11/04 07:51:40;;;;;;;;;;;;;;;32.44;62.21;100577.13;5101466;27;70697;-37
2023/11/04 07:54:10;;;;;;;;;;;;;;;32.47;61.95;100565.81;5102550;27;66930;-37
2023/11/04 07:56:39;;;;;;;;;;;;;;;32.52;61.77;100567.00;5101166;27;70429;-38
2023/11/04 07:59:09;;;;;;;;;;;;;;;32.54;61.95;100554.00;5100896;27;66916;-37
2023/11/04 08:01:39;;;;;;;;;;;;;;;32.57;62.15;100551.66;5100821;27;72096;-37
2023/11/04 08:04:09;;;;;;;;;;;;;;;32.61;62.30;100554.69;5101381;27;66113;-39
2023/11/04 08:06:39;;;;;;;;;;;;;;;32.63;62.26;100552.56;5102071;27;70393;-38
2023/11/04 08:09:10;;;;;;;;;;;;;;;32.66;62.53;100552.91;5102539;27;65432;-39
2023/11/04 08:11:40;;;;;;;;;;;;;;;32.70;62.10;100542.38;5100816;27;69429;-38
2023/11/04 08:14:09;;;;;;;;;;;;;;;32.72;62.37;100543.78;5100124;27;66373;-38
2023/11/04 08:16:39;;;;;;;;;;;;;;;32.74;62.85;100551.72;5099876;27;70498;-39
2023/11/04 08:19:09;;;;;;;;;;;;;;;32.79;62.64;100550.97;5105181;27;66527;-40
2023/11/04 08:21:39;;;;;;;;;;;;;;;32.81;62.57;100552.38;5105656;27;70500;-37
2023/11/04 08:24:09;;;;;;;;;;;;;;;32.87;62.73;100548.69;5102894;27;66834;-39
2023/11/04 08:26:41;;;;;;;;;;;;;;;32.91;62.64;100549.88;5078843;27;70150;-38
2023/11/04 08:29:11;;;;;;;;;;;;;;;32.91;62.88;100555.31;5101903;27;66512;-38
2023/11/04 08:31:41;;;;;;;;;;;;;;;32.85;62.60;100539.16;5101472;27;70576;-39
2023/11/04 08:34:11;;;;;;;;;;;;;;;32.99;62.95;100558.69;5102909;27;67354;-38
2023/11/04 08:36:42;;;;;;;;;;;;;;;33.01;62.61;100562.84;5099070;27;71021;-38
2023/11/04 08:39:12;;;;;;;;;;;;;;;33.04;63.58;100559.69;5099733;27;66050;-37
2023/11/04 08:41:44;;;;;;;;;;;;;;;33.08;64.14;100551.84;5084822;27;70035;-41
2023/11/04 08:44:17;;;;;;;;;;;;;;;33.01;65.05;100559.31;5082812;27;65378;-38
2023/11/04 08:46:47;;;;;;;;;;;;;;;32.83;66.72;100554.88;5099700;27;70701;-39
2023/11/04 08:49:17;;;;;;;;;;;;;;;32.71;67.50;100561.19;5102436;27;65407;-40
2023/11/04 08:51:48;;;;;;;;;;;;;;;32.66;68.06;100560.25;5102414;27;70035;-37
2023/11/04 08:54:20;;;;;;;;;;;;;;;32.62;68.82;100567.22;5101177;27;66885;-38
2023/11/04 08:56:51;;;;;;;;;;;;;;;32.59;68.16;100573.13;5102822;27;69762;-38
2023/11/04 08:59:21;;;;;;;;;;;;;;;32.50;68.37;100569.94;5102990;27;66351;-38
2023/11/04 09:01:51;;;;;;;;;;;;;;;32.47;68.40;100571.25;5083094;27;70029;-38
2023/11/04 09:04:20;;;;;;;;;;;;;;;32.44;69.56;100571.69;5100586;27;65368;-40
2023/11/04 09:06:56;;;;;;;;;;;;;;;32.42;70.35;100576.53;5080231;27;69640;-40
2023/11/04 09:09:26;;;;;;;;;;;;;;;32.38;70.05;100583.50;5102417;27;66278;-38
2023/11/04 09:11:56;;;;;;;;;;;;;;;32.36;70.64;100587.53;5084080;27;70336;-37
2023/11/04 09:14:25;;;;;;;;;;;;;;;32.31;70.68;100588.22;5101734;27;66620;-38
2023/11/04 09:16:55;;;;;;;;;;;;;;;32.36;69.48;100596.50;5102363;27;70842;-38
2023/11/04 09:19:25;;;;;;;;;;;;;;;32.34;69.17;100593.19;5095358;27;66629;-38
2023/11/04 09:21:55;;;;;;;;;;;;;;;32.36;68.90;100601.09;5097306;27;70560;-38
2023/11/04 09:24:25;;;;;;;;;;;;;;;32.34;69.05;100593.19;5102380;27;65858;-38
2023/11/04 09:26:55;;;;;;;;;;;;;;;32.36;68.95;100593.78;5100104;27;70488;-39
2023/11/04 09:29:25;;;;;;;;;;;;;;;32.34;68.77;100601.31;5101474;27;65977;-38
2023/11/04 09:31:54;;;;;;;;;;;;;;;32.51;68.70;100603.34;5097174;27;71883;-38
2023/11/04 09:34:24;;;;;;;;;;;;;;;32.74;67.95;100597.91;5084008;27;66064;-37
2023/11/04 09:36:54;;;;;;;;;;;;;;;32.87;67.25;100605.75;5101283;27;70302;-37
2023/11/04 09:39:24;;;;;;;;;;;;;;;32.96;67.21;100606.22;5099472;27;67053;-38
2023/11/04 09:41:56;;;;;;;;;;;;;;;33.03;66.88;100616.97;5099338;27;70389;-37
2023/11/04 09:44:27;;;;;;;;;;;;;;;33.07;66.75;100613.53;5098485;27;66925;-39
2023/11/04 09:46:58;;;;;;;;;;;;;;;33.10;66.61;100623.09;5099806;27;70541;-38
2023/11/04 09:49:28;;;;;;;;;;;;;;;33.12;66.82;100620.94;5094979;27;66701;-37
2023/11/04 09:52:00;;;;;;;;;;;;;;;33.18;66.76;100622.69;5098466;27;69863;-37
2023/11/04 09:54:31;;;;;;;;;;;;;;;33.20;66.71;100625.19;5101156;27;68574;-38
2023/11/04 09:57:01;;;;;;;;;;;;;;;33.07;66.29;100596.38;5099715;27;70319;-38
2023/11/04 09:59:32;;;;;;;;;;;;;;;33.21;66.44;100627.66;5098099;27;66712;-38
2023/11/04 10:02:02;;;;;;;;;;;;;;;32.84;69.34;100625.25;5099953;27;70800;-38
2023/11/04 10:04:31;;;;;;;;;;;;;;;32.65;69.75;100631.91;5077091;27;65269;-38
2023/11/04 10:07:01;;;;;;;;;;;;;;;32.56;69.78;100645.03;5095775;27;70127;-38
2023/11/04 10:09:32;;;;;;;;;;;;;;;32.51;70.32;100649.50;5099456;27;67179;-39
2023/11/04 10:12:03;;;;;;;;;;;;;;;32.43;70.83;100651.50;5101483;27;70281;-38
2023/11/04 10:14:33;;;;;;;;;;;;;;;32.37;71.00;100647.00;5100617;27;66564;-39
2023/11/04 10:17:06;;;;;;;;;;;;;;;32.34;71.20;100646.66;5100092;27;70595;-38
2023/11/04 10:19:36;;;;;;;;;;;;;;;32.30;71.57;100651.72;5100193;27;66694;-40
2023/11/04 10:22:06;;;;;;;;;;;;;;;32.27;71.39;100663.06;5097524;27;70380;-39
2023/11/04 10:24:36;;;;;;;;;;;;;;;32.23;71.71;100667.28;5082011;27;66524;-39
2023/11/04 10:27:06;;;;;;;;;;;;;;;32.23;72.33;100667.28;5099099;27;70674;-38
2023/11/04 10:29:35;;;;;;;;;;;;;;;32.20;72.33;100678.63;5098409;27;66648;-38
2023/11/04 10:32:06;;;;;;;;;;;;;;;32.21;72.90;100681.13;5075357;27;69897;-44
2023/11/04 10:34:40;;;;;;;;;;;;;;;32.21;72.73;100683.81;5100760;27;66686;-39
2023/11/04 10:37:11;;;;;;;;;;;;;;;32.20;73.11;100684.88;5097222;27;70512;-40
2023/11/04 10:39:43;;;;;;;;;;;;;;;32.18;73.31;100691.59;5099664;27;66981;-38
2023/11/04 10:42:15;;;;;;;;;;;;;;;32.20;73.79;100700.34;5098707;27;69404;-37
2023/11/04 10:44:47;;;;;;;;;;;;;;;32.20;74.33;100703.03;5099541;27;66543;-38
2023/11/04 10:47:31;;;;;;;;;;;;;;;32.34;73.64;100706.38;5101681;27;69885;-39
2023/11/04 10:50:01;;;;;;;;;;;;;;;32.56;72.55;100703.94;5100444;27;66706;-39
2023/11/04 10:52:33;;;;;;;;;;;;;;;32.66;71.99;100704.19;5101795;27;70911;-38
2023/11/04 10:55:13;;;;;;;;;;;;;;;32.73;71.78;100710.31;5100958;27;66049;-39
2023/11/04 10:57:48;;;;;;;;;;;;;;;32.78;71.48;100721.28;5101146;27;69826;-40
2023/11/04 11:00:23;;;;;;;;;;;;;;;32.84;71.15;100722.22;5083299;27;66669;-39
2023/11/04 11:02:52;;;;;;;;;;;;;;;32.85;71.24;100724.72;5100676;27;70007;-39
2023/11/04 11:05:24;;;;;;;;;;;;;;;32.88;71.06;100723.41;5082679;27;65940;-38
2023/11/04 11:07:54;;;;;;;;;;;;;;;32.89;71.37;100714.19;5099519;27;69288;-42
2023/11/04 11:10:27;;;;;;;;;;;;;;;32.90;71.25;100715.84;5083595;27;65893;-38
2023/11/04 11:13:15;;;;;;;;;;;;;;;32.89;71.85;100728.59;5083943;27;70308;-39
2023/11/04 11:15:46;;;;;;;;;;;;;;;32.87;72.24;100727.19;5101160;27;66069;-39
2023/11/04 11:18:26;;;;;;;;;;;;;;;32.87;71.78;100717.13;5083528;27;70066;-38
2023/11/04 11:21:09;;;;;;;;;;;;;;;32.88;71.68;100724.25;5088361;27;66047;-39
2023/11/04 11:23:39;;;;;;;;;;;;;;;32.86;72.43;100725.53;5101941;27;70319;-39
2023/11/04 11:26:13;;;;;;;;;;;;;;;32.85;72.98;100730.16;5099249;27;66715;-37
2023/11/04 11:28:44;;;;;;;;;;;;;;;32.87;71.99;100732.63;5083341;27;70361;-39
2023/11/04 11:31:13;;;;;;;;;;;;;;;32.88;72.06;100737.81;5100675;27;66087;-38
2023/11/04 11:33:43;;;;;;;;;;;;;;;32.88;72.14;100745.97;5099288;27;69829;-39
2023/11/04 11:36:14;;;;;;;;;;;;;;;32.87;72.43;100744.31;5100178;27;66161;-39
2023/11/04 11:38:44;;;;;;;;;;;;;;;32.86;72.40;100742.66;5101585;27;70389;-38
2023/11/04 11:41:15;;;;;;;;;;;;;;;32.88;72.38;100739.72;5097309;27;67067;-39
2023/11/04 11:43:49;;;;;;;;;;;;;;;32.83;73.14;100737.72;5090892;27;70320;-38
2023/11/04 11:46:18;;;;;;;;;;;;;;;32.81;73.51;100739.81;5101390;27;66224;-40
2023/11/04 11:48:48;;;;;;;;;;;;;;;32.83;72.52;100747.75;5086680;27;70736;-39
2023/11/04 11:51:18;;;;;;;;;;;;;;;32.83;72.59;100742.31;5083972;27;65028;-39
2023/11/04 11:53:48;;;;;;;;;;;;;;;32.78;73.56;100745.72;5104763;27;70768;-38
2023/11/04 11:56:20;;;;;;;;;;;;;;;32.79;73.56;100758.28;5104181;27;66994;-40
2023/11/04 11:58:49;;;;;;;;;;;;;;;32.79;73.55;100758.28;5104793;27;70435;-39
2023/11/04 12:01:20;;;;;;;;;;;;;;;32.71;73.12;100740.44;5104596;27;66864;-45
2023/11/04 12:03:49;;;;;;;;;;;;;;;32.81;73.17;100771.59;5073769;27;70617;-39
2023/11/04 12:06:19;;;;;;;;;;;;;;;32.80;73.39;100773.50;5104127;27;65217;-38
2023/11/04 12:08:49;;;;;;;;;;;;;;;32.81;72.98;100786.00;5103456;27;69412;-38
2023/11/04 12:11:19;;;;;;;;;;;;;;;32.80;72.92;100792.50;5099301;27;66682;-38
2023/11/04 12:13:49;;;;;;;;;;;;;;;32.79;72.63;100801.72;5090957;27;70297;-40
2023/11/04 12:16:19;;;;;;;;;;;;;;;32.78;72.34;100797.34;5104075;27;65708;-39
2023/11/04 12:18:49;;;;;;;;;;;;;;;32.76;72.30;100802.19;5103232;27;69403;-39
2023/11/04 12:21:19;;;;;;;;;;;;;;;32.74;72.10;100798.91;5104407;27;65972;-39
2023/11/04 12:23:56;;;;;;;;;;;;;;;32.73;72.47;100794.50;5102444;27;70517;-39
2023/11/04 12:26:32;;;;;;;;;;;;;;;32.71;72.21;100793.94;5104204;27;66916;-38
2023/11/04 12:29:02;;;;;;;;;;;;;;;32.70;72.41;100797.69;5084113;27;70227;-38
2023/11/04 12:31:32;;;;;;;;;;;;;;;32.67;72.41;100798.97;5103548;27;65398;-38
2023/11/04 12:34:03;;;;;;;;;;;;;;;32.67;72.24;100803.59;5102539;27;69734;-38
2023/11/04 12:36:33;;;;;;;;;;;;;;;32.35;74.49;100806.59;5101434;27;67905;-38
2023/11/04 12:39:03;;;;;;;;;;;;;;;32.17;75.90;100806.63;5098908;27;71330;-38
2023/11/04 12:41:34;;;;;;;;;;;;;;;32.04;76.57;100804.97;5084279;27;67051;-38
2023/11/04 12:44:05;;;;;;;;;;;;;;;31.93;76.78;100814.69;5101021;27;70280;-38
2023/11/04 12:46:37;;;;;;;;;;;;;;;31.89;77.16;100824.31;5101207;27;66285;-39
2023/11/04 12:49:07;;;;;;;;;;;;;;;31.81;77.67;100822.72;5083995;27;70529;-39
2023/11/04 12:51:37;;;;;;;;;;;;;;;31.76;77.72;100829.88;5101411;27;66703;-39
2023/11/04 12:54:07;;;;;;;;;;;;;;;31.73;78.14;100839.34;5101805;27;70086;-39
2023/11/04 12:56:37;;;;;;;;;;;;;;;31.72;79.12;100844.97;5100789;27;66035;-38
2023/11/04 12:59:07;;;;;;;;;;;;;;;31.57;77.43;100845.38;5102270;27;69975;-37
2023/11/04 13:01:36;;;;;;;;;;;;;;;31.42;75.86;100851.13;5101970;27;66326;-38
2023/11/04 13:04:06;;;;;;;;;;;;;;;31.30;74.28;100852.91;5101392;27;69714;-39
2023/11/04 13:06:36;;;;;;;;;;;;;;;31.16;73.44;100850.31;5095964;27;66604;-39
2023/11/04 13:09:06;;;;;;;;;;;;;;;31.05;72.30;100861.91;5096695;27;70760;-39
2023/11/04 13:11:36;;;;;;;;;;;;;;;30.95;71.10;100866.97;5102817;27;66507;-37
2023/11/04 13:14:05;;;;;;;;;;;;;;;30.87;70.10;100872.66;5101886;27;70387;-37
2023/11/04 13:16:35;;;;;;;;;;;;;;;30.78;69.40;100868.53;5097573;27;66219;-46
2023/11/04 13:19:05;;;;;;;;;;;;;;;30.67;67.97;100870.94;5103358;27;70285;-37
2023/11/04 13:21:36;;;;;;;;;;;;;;;30.60;67.09;100880.97;5103435;27;66608;-37
2023/11/04 13:24:06;;;;;;;;;;;;;;;30.54;66.74;100878.31;5103304;27;69331;-37
2023/11/04 13:26:35;;;;;;;;;;;;;;;30.46;65.71;100873.97;5101662;27;66999;-37
2023/11/04 13:29:05;;;;;;;;;;;;;;;30.41;65.27;100879.22;5099185;27;70172;-36
2023/11/04 13:31:35;;;;;;;;;;;;;;;30.36;64.27;100884.44;5102116;27;66557;-37
2023/11/04 13:34:05;;;;;;;;;;;;;;;30.31;63.48;100886.97;5102543;27;70193;-37
2023/11/04 13:36:37;;;;;;;;;;;;;;;30.25;63.00;100889.47;5092530;27;66952;-38